sensor_id;sensor_type;location;lat;lon;timestamp;pressure;altitude;pressure_sealevel;temperature
68939;BMP180;59064;45.294;11.816;2024-01-30T00:01:17;103381.80;;;-1.80
68939;BMP180;59064;45.294;11.816;2024-01-30T00:03:43;103384.80;;;-1.80
68939;BMP180;59064;45.294;11.816;2024-01-30T00:06:09;103383.80;;;-1.80
68939;BMP180;59064;45.294;11.816;2024-01-30T00:08:35;103384.60;;;-1.80
68939;BMP180;59064;45.294;11.816;2024-01-30T00:11:01;103387.20;;;-1.80
68939;BMP180;59064;45.294;11.816;2024-01-30T00:13:26;103387.00;;;-1.90
68939;BMP180;59064;45.294;11.816;2024-01-30T00:15:52;103386.60;;;-1.90
68939;BMP180;59064;45.294;11.816;2024-01-30T00:18:17;103386.60;;;-1.90
68939;BMP180;59064;45.294;11.816;2024-01-30T00:20:44;103384.80;;;-1.90
68939;BMP180;59064;45.294;11.816;2024-01-30T00:23:09;103386.40;;;-1.96
68939;BMP180;59064;45.294;11.816;2024-01-30T00:25:35;103390.20;;;-2.00
68939;BMP180;59064;45.294;11.816;2024-01-30T00:28:00;103383.00;;;-2.00
68939;BMP180;59064;45.294;11.816;2024-01-30T00:30:27;103383.20;;;-2.00
68939;BMP180;59064;45.294;11.816;2024-01-30T00:32:53;103384.00;;;-2.00
68939;BMP180;59064;45.294;11.816;2024-01-30T00:35:19;103383.20;;;-2.08
68939;BMP180;59064;45.294;11.816;2024-01-30T00:37:47;103376.80;;;-2.10
68939;BMP180;59064;45.294;11.816;2024-01-30T00:40:12;103380.20;;;-2.10
68939;BMP180;59064;45.294;11.816;2024-01-30T00:42:44;103382.00;;;-2.16
68939;BMP180;59064;45.294;11.816;2024-01-30T00:45:16;103384.80;;;-2.28
68939;BMP180;59064;45.294;11.816;2024-01-30T00:47:42;103384.60;;;-2.30
68939;BMP180;59064;45.294;11.816;2024-01-30T00:50:08;103381.00;;;-2.40
68939;BMP180;59064;45.294;11.816;2024-01-30T00:52:33;103385.80;;;-2.38
68939;BMP180;59064;45.294;11.816;2024-01-30T00:55:00;103381.80;;;-2.40
68939;BMP180;59064;45.294;11.816;2024-01-30T00:57:25;103381.80;;;-2.40
68939;BMP180;59064;45.294;11.816;2024-01-30T00:59:52;103378.00;;;-2.40
68939;BMP180;59064;45.294;11.816;2024-01-30T01:02:17;103381.00;;;-2.50
68939;BMP180;59064;45.294;11.816;2024-01-30T01:04:43;103379.40;;;-2.50
68939;BMP180;59064;45.294;11.816;2024-01-30T01:07:10;103381.80;;;-2.50
68939;BMP180;59064;45.294;11.816;2024-01-30T01:09:35;103384.00;;;-2.50
68939;BMP180;59064;45.294;11.816;2024-01-30T01:12:02;103381.40;;;-2.50
68939;BMP180;59064;45.294;11.816;2024-01-30T01:14:27;103380.60;;;-2.50
68939;BMP180;59064;45.294;11.816;2024-01-30T01:16:54;103379.40;;;-2.50
68939;BMP180;59064;45.294;11.816;2024-01-30T01:19:19;103377.80;;;-2.50
68939;BMP180;59064;45.294;11.816;2024-01-30T01:21:44;103374.80;;;-2.50
68939;BMP180;59064;45.294;11.816;2024-01-30T01:24:10;103374.40;;;-2.46
68939;BMP180;59064;45.294;11.816;2024-01-30T01:26:35;103374.80;;;-2.50
68939;BMP180;59064;45.294;11.816;2024-01-30T01:29:01;103377.20;;;-2.50
68939;BMP180;59064;45.294;11.816;2024-01-30T01:31:26;103377.20;;;-2.50
68939;BMP180;59064;45.294;11.816;2024-01-30T01:33:55;103369.80;;;-2.50
68939;BMP180;59064;45.294;11.816;2024-01-30T01:36:20;103373.60;;;-2.50
68939;BMP180;59064;45.294;11.816;2024-01-30T01:38:46;103372.80;;;-2.60
68939;BMP180;59064;45.294;11.816;2024-01-30T01:41:11;103369.20;;;-2.60
68939;BMP180;59064;45.294;11.816;2024-01-30T01:43:37;103367.40;;;-2.70
68939;BMP180;59064;45.294;11.816;2024-01-30T01:46:04;103364.00;;;-2.70
68939;BMP180;59064;45.294;11.816;2024-01-30T01:48:30;103363.80;;;-2.80
68939;BMP180;59064;45.294;11.816;2024-01-30T01:50:56;103361.40;;;-2.80
68939;BMP180;59064;45.294;11.816;2024-01-30T01:53:22;103359.40;;;-2.80
68939;BMP180;59064;45.294;11.816;2024-01-30T01:55:47;103353.80;;;-2.90
68939;BMP180;59064;45.294;11.816;2024-01-30T01:58:14;103360.20;;;-2.90
68939;BMP180;59064;45.294;11.816;2024-01-30T02:00:40;103357.20;;;-2.90
68939;BMP180;59064;45.294;11.816;2024-01-30T02:03:09;103356.80;;;-2.90
68939;BMP180;59064;45.294;11.816;2024-01-30T02:05:36;103357.60;;;-2.90
68939;BMP180;59064;45.294;11.816;2024-01-30T02:08:02;103352.40;;;-2.90
68939;BMP180;59064;45.294;11.816;2024-01-30T02:10:28;103352.20;;;-2.90
68939;BMP180;59064;45.294;11.816;2024-01-30T02:12:54;103350.00;;;-2.90
68939;BMP180;59064;45.294;11.816;2024-01-30T02:15:19;103352.80;;;-2.90
68939;BMP180;59064;45.294;11.816;2024-01-30T02:17:45;103353.40;;;-2.90
68939;BMP180;59064;45.294;11.816;2024-01-30T02:20:10;103352.60;;;-2.94
68939;BMP180;59064;45.294;11.816;2024-01-30T02:22:37;103351.60;;;-2.98
68939;BMP180;59064;45.294;11.816;2024-01-30T02:25:03;103344.80;;;-3.00
68939;BMP180;59064;45.294;11.816;2024-01-30T02:27:28;103346.20;;;-3.02
68939;BMP180;59064;45.294;11.816;2024-01-30T02:29:54;103343.80;;;-3.10
68939;BMP180;59064;45.294;11.816;2024-01-30T02:32:19;103343.60;;;-3.10
68939;BMP180;59064;45.294;11.816;2024-01-30T02:34:45;103342.80;;;-3.20
68939;BMP180;59064;45.294;11.816;2024-01-30T02:37:10;103342.00;;;-3.20
68939;BMP180;59064;45.294;11.816;2024-01-30T02:39:36;103343.00;;;-3.20
68939;BMP180;59064;45.294;11.816;2024-01-30T02:42:01;103339.20;;;-3.30
68939;BMP180;59064;45.294;11.816;2024-01-30T02:44:27;103333.60;;;-3.40
68939;BMP180;59064;45.294;11.816;2024-01-30T02:46:52;103330.40;;;-3.40
68939;BMP180;59064;45.294;11.816;2024-01-30T02:49:20;103333.00;;;-3.40
68939;BMP180;59064;45.294;11.816;2024-01-30T02:51:45;103332.00;;;-3.50
68939;BMP180;59064;45.294;11.816;2024-01-30T02:54:11;103329.00;;;-3.50
68939;BMP180;59064;45.294;11.816;2024-01-30T02:56:36;103325.40;;;-3.60
68939;BMP180;59064;45.294;11.816;2024-01-30T02:59:02;103329.80;;;-3.60
68939;BMP180;59064;45.294;11.816;2024-01-30T03:01:28;103333.20;;;-3.68
68939;BMP180;59064;45.294;11.816;2024-01-30T03:03:53;103335.60;;;-3.70
68939;BMP180;59064;45.294;11.816;2024-01-30T03:06:19;103330.00;;;-3.70
68939;BMP180;59064;45.294;11.816;2024-01-30T03:08:45;103326.60;;;-3.70
68939;BMP180;59064;45.294;11.816;2024-01-30T03:11:11;103330.20;;;-3.72
68939;BMP180;59064;45.294;11.816;2024-01-30T03:13:36;103319.60;;;-3.80
68939;BMP180;59064;45.294;11.816;2024-01-30T03:16:02;103319.00;;;-3.80
68939;BMP180;59064;45.294;11.816;2024-01-30T03:18:28;103313.60;;;-3.80
68939;BMP180;59064;45.294;11.816;2024-01-30T03:20:53;103310.60;;;-3.80
68939;BMP180;59064;45.294;11.816;2024-01-30T03:23:18;103308.80;;;-3.80
68939;BMP180;59064;45.294;11.816;2024-01-30T03:25:44;103307.60;;;-3.80
68939;BMP180;59064;45.294;11.816;2024-01-30T03:28:09;103308.60;;;-3.80
68939;BMP180;59064;45.294;11.816;2024-01-30T03:30:35;103307.00;;;-3.80
68939;BMP180;59064;45.294;11.816;2024-01-30T03:33:00;103309.40;;;-3.80
68939;BMP180;59064;45.294;11.816;2024-01-30T03:35:26;103310.80;;;-3.80
68939;BMP180;59064;45.294;11.816;2024-01-30T03:37:51;103305.40;;;-3.80
68939;BMP180;59064;45.294;11.816;2024-01-30T03:40:17;103305.60;;;-3.74
68939;BMP180;59064;45.294;11.816;2024-01-30T03:42:42;103303.00;;;-3.72
68939;BMP180;59064;45.294;11.816;2024-01-30T03:45:08;103301.80;;;-3.74
68939;BMP180;59064;45.294;11.816;2024-01-30T03:47:35;103303.40;;;-3.74
68939;BMP180;59064;45.294;11.816;2024-01-30T03:50:00;103298.40;;;-3.80
68939;BMP180;59064;45.294;11.816;2024-01-30T03:52:26;103293.20;;;-3.80
68939;BMP180;59064;45.294;11.816;2024-01-30T03:54:51;103293.60;;;-3.80
68939;BMP180;59064;45.294;11.816;2024-01-30T03:57:16;103291.00;;;-3.80
68939;BMP180;59064;45.294;11.816;2024-01-30T03:59:42;103290.60;;;-3.80
68939;BMP180;59064;45.294;11.816;2024-01-30T04:02:09;103285.60;;;-3.80
68939;BMP180;59064;45.294;11.816;2024-01-30T04:04:34;103291.20;;;-3.80
68939;BMP180;59064;45.294;11.816;2024-01-30T04:07:00;103295.00;;;-3.80
68939;BMP180;59064;45.294;11.816;2024-01-30T04:09:25;103292.80;;;-3.80
68939;BMP180;59064;45.294;11.816;2024-01-30T04:11:54;103289.00;;;-3.80
68939;BMP180;59064;45.294;11.816;2024-01-30T04:14:20;103290.40;;;-3.80
68939;BMP180;59064;45.294;11.816;2024-01-30T04:16:45;103290.60;;;-3.76
68939;BMP180;59064;45.294;11.816;2024-01-30T04:19:11;103293.00;;;-3.70
68939;BMP180;59064;45.294;11.816;2024-01-30T04:21:36;103294.40;;;-3.70
68939;BMP180;59064;45.294;11.816;2024-01-30T04:24:02;103293.60;;;-3.70
68939;BMP180;59064;45.294;11.816;2024-01-30T04:26:27;103295.40;;;-3.64
68939;BMP180;59064;45.294;11.816;2024-01-30T04:28:53;103300.60;;;-3.62
68939;BMP180;59064;45.294;11.816;2024-01-30T04:31:19;103298.80;;;-3.60
68939;BMP180;59064;45.294;11.816;2024-01-30T04:33:44;103299.60;;;-3.60
68939;BMP180;59064;45.294;11.816;2024-01-30T04:36:10;103294.40;;;-3.60
68939;BMP180;59064;45.294;11.816;2024-01-30T04:38:37;103296.00;;;-3.52
68939;BMP180;59064;45.294;11.816;2024-01-30T04:41:03;103300.20;;;-3.50
68939;BMP180;59064;45.294;11.816;2024-01-30T04:43:29;103304.60;;;-3.50
68939;BMP180;59064;45.294;11.816;2024-01-30T04:45:55;103305.80;;;-3.40
68939;BMP180;59064;45.294;11.816;2024-01-30T04:48:20;103297.00;;;-3.40
68939;BMP180;59064;45.294;11.816;2024-01-30T04:50:46;103296.60;;;-3.40
68939;BMP180;59064;45.294;11.816;2024-01-30T04:53:11;103298.80;;;-3.30
68939;BMP180;59064;45.294;11.816;2024-01-30T04:55:37;103301.20;;;-3.30
68939;BMP180;59064;45.294;11.816;2024-01-30T04:58:03;103297.00;;;-3.30
68939;BMP180;59064;45.294;11.816;2024-01-30T05:00:28;103298.40;;;-3.30
68939;BMP180;59064;45.294;11.816;2024-01-30T05:02:57;103306.00;;;-3.28
68939;BMP180;59064;45.294;11.816;2024-01-30T05:05:22;103307.40;;;-3.20
68939;BMP180;59064;45.294;11.816;2024-01-30T05:07:49;103308.60;;;-3.20
68939;BMP180;59064;45.294;11.816;2024-01-30T05:10:14;103306.80;;;-3.18
68939;BMP180;59064;45.294;11.816;2024-01-30T05:12:40;103306.80;;;-3.10
68939;BMP180;59064;45.294;11.816;2024-01-30T05:15:06;103312.20;;;-3.10
68939;BMP180;59064;45.294;11.816;2024-01-30T05:17:31;103311.60;;;-3.02
68939;BMP180;59064;45.294;11.816;2024-01-30T05:19:57;103314.20;;;-3.00
68939;BMP180;59064;45.294;11.816;2024-01-30T05:22:22;103316.20;;;-2.90
68939;BMP180;59064;45.294;11.816;2024-01-30T05:24:48;103318.80;;;-2.84
68939;BMP180;59064;45.294;11.816;2024-01-30T05:27:13;103321.40;;;-2.80
68939;BMP180;59064;45.294;11.816;2024-01-30T05:29:39;103319.60;;;-2.70
68939;BMP180;59064;45.294;11.816;2024-01-30T05:32:07;103320.00;;;-2.64
68939;BMP180;59064;45.294;11.816;2024-01-30T05:34:32;103324.40;;;-2.60
68939;BMP180;59064;45.294;11.816;2024-01-30T05:36:58;103321.80;;;-2.58
68939;BMP180;59064;45.294;11.816;2024-01-30T05:39:24;103325.20;;;-2.50
68939;BMP180;59064;45.294;11.816;2024-01-30T05:41:49;103331.00;;;-2.50
68939;BMP180;59064;45.294;11.816;2024-01-30T05:44:15;103329.00;;;-2.50
68939;BMP180;59064;45.294;11.816;2024-01-30T05:46:40;103332.20;;;-2.50
68939;BMP180;59064;45.294;11.816;2024-01-30T05:49:06;103334.00;;;-2.50
68939;BMP180;59064;45.294;11.816;2024-01-30T05:51:31;103334.40;;;-2.50
68939;BMP180;59064;45.294;11.816;2024-01-30T05:53:57;103332.40;;;-2.50
68939;BMP180;59064;45.294;11.816;2024-01-30T05:56:22;103336.20;;;-2.50
68939;BMP180;59064;45.294;11.816;2024-01-30T05:58:48;103329.60;;;-2.50
68939;BMP180;59064;45.294;11.816;2024-01-30T06:01:16;103331.80;;;-2.50
68939;BMP180;59064;45.294;11.816;2024-01-30T06:03:41;103327.80;;;-2.52
68939;BMP180;59064;45.294;11.816;2024-01-30T06:06:08;103324.00;;;-2.60
68939;BMP180;59064;45.294;11.816;2024-01-30T06:08:34;103329.00;;;-2.60
68939;BMP180;59064;45.294;11.816;2024-01-30T06:11:00;103333.20;;;-2.60
68939;BMP180;59064;45.294;11.816;2024-01-30T06:13:26;103331.40;;;-2.60
68939;BMP180;59064;45.294;11.816;2024-01-30T06:15:52;103325.40;;;-2.70
68939;BMP180;59064;45.294;11.816;2024-01-30T06:18:17;103327.00;;;-2.70
68939;BMP180;59064;45.294;11.816;2024-01-30T06:20:43;103323.00;;;-2.70
68939;BMP180;59064;45.294;11.816;2024-01-30T06:23:09;103326.40;;;-2.70
68939;BMP180;59064;45.294;11.816;2024-01-30T06:25:34;103327.80;;;-2.72
68939;BMP180;59064;45.294;11.816;2024-01-30T06:28:00;103325.40;;;-2.80
68939;BMP180;59064;45.294;11.816;2024-01-30T06:30:25;103333.20;;;-2.80
68939;BMP180;59064;45.294;11.816;2024-01-30T06:32:51;103328.00;;;-2.90
68939;BMP180;59064;45.294;11.816;2024-01-30T06:35:16;103328.40;;;-2.90
68939;BMP180;59064;45.294;11.816;2024-01-30T06:37:43;103328.60;;;-2.90
68939;BMP180;59064;45.294;11.816;2024-01-30T06:40:08;103330.20;;;-2.92
68939;BMP180;59064;45.294;11.816;2024-01-30T06:42:34;103337.40;;;-2.90
68939;BMP180;59064;45.294;11.816;2024-01-30T06:45:00;103345.40;;;-2.90
68939;BMP180;59064;45.294;11.816;2024-01-30T06:47:26;103350.00;;;-2.90
68939;BMP180;59064;45.294;11.816;2024-01-30T06:49:51;103351.60;;;-2.90
68939;BMP180;59064;45.294;11.816;2024-01-30T06:52:17;103354.60;;;-2.90
68939;BMP180;59064;45.294;11.816;2024-01-30T06:54:43;103352.00;;;-2.82
68939;BMP180;59064;45.294;11.816;2024-01-30T06:57:08;103356.40;;;-2.80
68939;BMP180;59064;45.294;11.816;2024-01-30T06:59:38;103352.60;;;-2.80
68939;BMP180;59064;45.294;11.816;2024-01-30T07:02:12;103358.20;;;-2.88
68939;BMP180;59064;45.294;11.816;2024-01-30T07:04:38;103354.40;;;-2.90
68939;BMP180;59064;45.294;11.816;2024-01-30T07:07:04;103353.40;;;-3.00
68939;BMP180;59064;45.294;11.816;2024-01-30T07:09:31;103360.40;;;-3.00
68939;BMP180;59064;45.294;11.816;2024-01-30T07:11:57;103356.20;;;-3.00
68939;BMP180;59064;45.294;11.816;2024-01-30T07:14:24;103359.60;;;-3.00
68939;BMP180;59064;45.294;11.816;2024-01-30T07:16:49;103353.80;;;-3.00
68939;BMP180;59064;45.294;11.816;2024-01-30T07:19:16;103356.20;;;-3.00
68939;BMP180;59064;45.294;11.816;2024-01-30T07:21:42;103359.80;;;-3.00
68939;BMP180;59064;45.294;11.816;2024-01-30T07:24:07;103355.20;;;-3.02
68939;BMP180;59064;45.294;11.816;2024-01-30T07:26:33;103360.60;;;-3.00
68939;BMP180;59064;45.294;11.816;2024-01-30T07:28:58;103362.00;;;-2.90
68939;BMP180;59064;45.294;11.816;2024-01-30T07:31:24;103369.20;;;-2.90
68939;BMP180;59064;45.294;11.816;2024-01-30T07:33:49;103368.20;;;-2.82
68939;BMP180;59064;45.294;11.816;2024-01-30T07:36:15;103368.60;;;-2.80
68939;BMP180;59064;45.294;11.816;2024-01-30T07:38:40;103374.60;;;-2.70
68939;BMP180;59064;45.294;11.816;2024-01-30T07:41:06;103375.20;;;-2.60
68939;BMP180;59064;45.294;11.816;2024-01-30T07:43:32;103380.00;;;-2.50
68939;BMP180;59064;45.294;11.816;2024-01-30T07:45:59;103386.40;;;-2.40
68939;BMP180;59064;45.294;11.816;2024-01-30T07:48:26;103393.60;;;-2.34
68939;BMP180;59064;45.294;11.816;2024-01-30T07:50:51;103393.80;;;-2.28
68939;BMP180;59064;45.294;11.816;2024-01-30T07:53:17;103396.00;;;-2.12
68939;BMP180;59064;45.294;11.816;2024-01-30T07:55:42;103393.80;;;-2.00
68939;BMP180;59064;45.294;11.816;2024-01-30T07:58:12;103393.60;;;-1.90
68939;BMP180;59064;45.294;11.816;2024-01-30T08:00:38;103384.00;;;-1.70
68939;BMP180;59064;45.294;11.816;2024-01-30T08:03:04;103390.20;;;-1.60
68939;BMP180;59064;45.294;11.816;2024-01-30T08:05:30;103395.40;;;-1.40
68939;BMP180;59064;45.294;11.816;2024-01-30T08:07:56;103399.00;;;-1.30
68939;BMP180;59064;45.294;11.816;2024-01-30T08:10:21;103399.00;;;-1.30
68939;BMP180;59064;45.294;11.816;2024-01-30T08:12:47;103401.00;;;-1.30
68939;BMP180;59064;45.294;11.816;2024-01-30T08:15:12;103396.20;;;-1.20
68939;BMP180;59064;45.294;11.816;2024-01-30T08:17:38;103396.80;;;-1.10
68939;BMP180;59064;45.294;11.816;2024-01-30T08:20:05;103396.60;;;-1.00
68939;BMP180;59064;45.294;11.816;2024-01-30T08:22:31;103393.20;;;-0.84
68939;BMP180;59064;45.294;11.816;2024-01-30T08:24:56;103405.60;;;-0.70
68939;BMP180;59064;45.294;11.816;2024-01-30T08:27:22;103411.40;;;-0.50
68939;BMP180;59064;45.294;11.816;2024-01-30T08:29:47;103408.20;;;-0.32
68939;BMP180;59064;45.294;11.816;2024-01-30T08:32:13;103401.20;;;-0.20
68939;BMP180;59064;45.294;11.816;2024-01-30T08:34:38;103411.60;;;-0.20
68939;BMP180;59064;45.294;11.816;2024-01-30T08:37:04;103412.20;;;-0.10
68939;BMP180;59064;45.294;11.816;2024-01-30T08:39:29;103407.40;;;0.02
68939;BMP180;59064;45.294;11.816;2024-01-30T08:41:56;103410.60;;;0.10
68939;BMP180;59064;45.294;11.816;2024-01-30T08:44:22;103411.80;;;0.20
68939;BMP180;59064;45.294;11.816;2024-01-30T08:46:47;103410.20;;;0.30
68939;BMP180;59064;45.294;11.816;2024-01-30T08:49:17;103409.40;;;0.40
68939;BMP180;59064;45.294;11.816;2024-01-30T08:51:42;103417.00;;;0.48
68939;BMP180;59064;45.294;11.816;2024-01-30T08:54:08;103417.00;;;0.40
68939;BMP180;59064;45.294;11.816;2024-01-30T08:56:33;103416.60;;;0.48
68939;BMP180;59064;45.294;11.816;2024-01-30T08:58:59;103413.80;;;0.50
68939;BMP180;59064;45.294;11.816;2024-01-30T09:01:25;103414.80;;;0.60
68939;BMP180;59064;45.294;11.816;2024-01-30T09:03:53;103407.40;;;0.70
68939;BMP180;59064;45.294;11.816;2024-01-30T09:06:18;103412.40;;;0.74
68939;BMP180;59064;45.294;11.816;2024-01-30T09:08:43;103417.80;;;0.84
68939;BMP180;59064;45.294;11.816;2024-01-30T09:11:13;103414.00;;;0.96
68939;BMP180;59064;45.294;11.816;2024-01-30T09:13:39;103414.40;;;1.00
68939;BMP180;59064;45.294;11.816;2024-01-30T09:16:06;103415.80;;;1.00
68939;BMP180;59064;45.294;11.816;2024-01-30T09:18:31;103413.60;;;1.00
68939;BMP180;59064;45.294;11.816;2024-01-30T09:20:57;103410.20;;;1.10
68939;BMP180;59064;45.294;11.816;2024-01-30T09:23:23;103412.60;;;1.20
68939;BMP180;59064;45.294;11.816;2024-01-30T09:25:48;103404.00;;;1.20
68939;BMP180;59064;45.294;11.816;2024-01-30T09:28:14;103405.40;;;1.20
68939;BMP180;59064;45.294;11.816;2024-01-30T09:30:39;103410.40;;;1.34
68939;BMP180;59064;45.294;11.816;2024-01-30T09:33:06;103409.60;;;1.50
68939;BMP180;59064;45.294;11.816;2024-01-30T09:35:32;103412.00;;;1.66
68939;BMP180;59064;45.294;11.816;2024-01-30T09:37:58;103419.60;;;1.80
68939;BMP180;59064;45.294;11.816;2024-01-30T09:40:24;103424.60;;;1.90
68939;BMP180;59064;45.294;11.816;2024-01-30T09:42:52;103427.20;;;2.00
68939;BMP180;59064;45.294;11.816;2024-01-30T09:45:18;103427.60;;;2.10
68939;BMP180;59064;45.294;11.816;2024-01-30T09:47:45;103423.60;;;2.16
68939;BMP180;59064;45.294;11.816;2024-01-30T09:50:12;103425.40;;;2.30
68939;BMP180;59064;45.294;11.816;2024-01-30T09:52:39;103426.40;;;2.40
68939;BMP180;59064;45.294;11.816;2024-01-30T09:55:06;103426.00;;;2.50
68939;BMP180;59064;45.294;11.816;2024-01-30T09:57:32;103422.20;;;2.60
68939;BMP180;59064;45.294;11.816;2024-01-30T09:59:58;103424.40;;;2.60
68939;BMP180;59064;45.294;11.816;2024-01-30T10:02:24;103416.00;;;2.60
68939;BMP180;59064;45.294;11.816;2024-01-30T10:04:52;103420.60;;;2.76
68939;BMP180;59064;45.294;11.816;2024-01-30T10:07:19;103422.60;;;2.80
68939;BMP180;59064;45.294;11.816;2024-01-30T10:09:46;103417.80;;;2.80
68939;BMP180;59064;45.294;11.816;2024-01-30T10:12:13;103418.00;;;2.90
68939;BMP180;59064;45.294;11.816;2024-01-30T10:15:19;103419.80;;;2.96
68939;BMP180;59064;45.294;11.816;2024-01-30T10:18:06;103421.40;;;3.00
68939;BMP180;59064;45.294;11.816;2024-01-30T10:20:32;103415.40;;;3.00
68939;BMP180;59064;45.294;11.816;2024-01-30T10:22:59;103422.80;;;3.10
68939;BMP180;59064;45.294;11.816;2024-01-30T10:25:26;103419.40;;;3.20
68939;BMP180;59064;45.294;11.816;2024-01-30T10:27:55;103421.40;;;3.30
68939;BMP180;59064;45.294;11.816;2024-01-30T10:30:22;103420.80;;;3.42
68939;BMP180;59064;45.294;11.816;2024-01-30T10:32:48;103422.00;;;3.60
68939;BMP180;59064;45.294;11.816;2024-01-30T10:35:15;103413.40;;;3.70
68939;BMP180;59064;45.294;11.816;2024-01-30T10:37:47;103410.60;;;3.80
68939;BMP180;59064;45.294;11.816;2024-01-30T10:40:14;103407.20;;;3.90
68939;BMP180;59064;45.294;11.816;2024-01-30T10:42:45;103400.40;;;4.00
68939;BMP180;59064;45.294;11.816;2024-01-30T10:45:15;103397.80;;;4.20
68939;BMP180;59064;45.294;11.816;2024-01-30T10:48:07;103390.00;;;4.24
68939;BMP180;59064;45.294;11.816;2024-01-30T10:50:35;103385.40;;;4.30
68939;BMP180;59064;45.294;11.816;2024-01-30T10:53:04;103382.40;;;4.48
68939;BMP180;59064;45.294;11.816;2024-01-30T10:55:32;103375.60;;;4.76
68939;BMP180;59064;45.294;11.816;2024-01-30T10:58:00;103376.00;;;5.00
68939;BMP180;59064;45.294;11.816;2024-01-30T11:00:26;103371.60;;;5.20
68939;BMP180;59064;45.294;11.816;2024-01-30T11:02:52;103370.80;;;5.48
68939;BMP180;59064;45.294;11.816;2024-01-30T11:05:25;103369.80;;;5.74
68939;BMP180;59064;45.294;11.816;2024-01-30T11:07:52;103367.20;;;5.92
68939;BMP180;59064;45.294;11.816;2024-01-30T11:10:17;103363.40;;;6.10
68939;BMP180;59064;45.294;11.816;2024-01-30T11:12:43;103359.80;;;6.20
68939;BMP180;59064;45.294;11.816;2024-01-30T11:15:12;103358.00;;;6.40
68939;BMP180;59064;45.294;11.816;2024-01-30T11:22:46;103348.40;;;7.14
68939;BMP180;59064;45.294;11.816;2024-01-30T11:25:16;103350.60;;;7.38
68939;BMP180;59064;45.294;11.816;2024-01-30T11:27:45;103343.60;;;7.60
68939;BMP180;59064;45.294;11.816;2024-01-30T11:30:21;103338.60;;;7.74
68939;BMP180;59064;45.294;11.816;2024-01-30T11:35:30;103335.20;;;8.20
68939;BMP180;59064;45.294;11.816;2024-01-30T11:37:57;103330.00;;;8.30
68939;BMP180;59064;45.294;11.816;2024-01-30T11:40:24;103326.40;;;8.30
68939;BMP180;59064;45.294;11.816;2024-01-30T11:42:53;103322.60;;;8.40
68939;BMP180;59064;45.294;11.816;2024-01-30T11:45:20;103321.00;;;8.50
68939;BMP180;59064;45.294;11.816;2024-01-30T11:47:46;103317.80;;;8.60
68939;BMP180;59064;45.294;11.816;2024-01-30T11:50:12;103319.80;;;8.60
68939;BMP180;59064;45.294;11.816;2024-01-30T11:52:38;103309.80;;;8.70
68939;BMP180;59064;45.294;11.816;2024-01-30T11:55:04;103312.00;;;8.70
68939;BMP180;59064;45.294;11.816;2024-01-30T11:57:30;103309.60;;;8.88
68939;BMP180;59064;45.294;11.816;2024-01-30T11:59:55;103307.60;;;9.00
68939;BMP180;59064;45.294;11.816;2024-01-30T12:02:20;103305.20;;;9.10
68939;BMP180;59064;45.294;11.816;2024-01-30T12:04:46;103301.80;;;9.26
68939;BMP180;59064;45.294;11.816;2024-01-30T12:07:12;103296.00;;;9.46
68939;BMP180;59064;45.294;11.816;2024-01-30T12:09:41;103298.00;;;9.70
68939;BMP180;59064;45.294;11.816;2024-01-30T12:12:07;103294.00;;;10.00
68939;BMP180;59064;45.294;11.816;2024-01-30T12:14:38;103287.60;;;10.20
68939;BMP180;59064;45.294;11.816;2024-01-30T12:17:05;103288.20;;;10.26
68939;BMP180;59064;45.294;11.816;2024-01-30T12:19:30;103283.60;;;10.58
68939;BMP180;59064;45.294;11.816;2024-01-30T12:21:59;103277.80;;;10.80
68939;BMP180;59064;45.294;11.816;2024-01-30T12:24:28;103272.80;;;10.90
68939;BMP180;59064;45.294;11.816;2024-01-30T12:27:00;103267.40;;;10.80
68939;BMP180;59064;45.294;11.816;2024-01-30T12:29:25;103271.00;;;10.90
68939;BMP180;59064;45.294;11.816;2024-01-30T12:31:54;103267.80;;;10.98
68939;BMP180;59064;45.294;11.816;2024-01-30T12:34:20;103267.40;;;11.14
68939;BMP180;59064;45.294;11.816;2024-01-30T12:36:49;103265.60;;;11.20
68939;BMP180;59064;45.294;11.816;2024-01-30T12:39:15;103262.60;;;11.30
68939;BMP180;59064;45.294;11.816;2024-01-30T12:41:41;103262.80;;;11.42
68939;BMP180;59064;45.294;11.816;2024-01-30T12:44:07;103256.20;;;11.64
68939;BMP180;59064;45.294;11.816;2024-01-30T12:46:34;103258.20;;;11.92
68939;BMP180;59064;45.294;11.816;2024-01-30T12:49:00;103254.80;;;12.00
68939;BMP180;59064;45.294;11.816;2024-01-30T12:51:25;103252.00;;;11.90
68939;BMP180;59064;45.294;11.816;2024-01-30T12:53:51;103245.20;;;12.02
68939;BMP180;59064;45.294;11.816;2024-01-30T12:56:17;103244.20;;;12.10
68939;BMP180;59064;45.294;11.816;2024-01-30T12:58:43;103244.40;;;12.20
68939;BMP180;59064;45.294;11.816;2024-01-30T13:01:09;103242.60;;;12.30
68939;BMP180;59064;45.294;11.816;2024-01-30T13:03:35;103240.20;;;12.14
68939;BMP180;59064;45.294;11.816;2024-01-30T13:06:01;103237.80;;;11.90
68939;BMP180;59064;45.294;11.816;2024-01-30T13:08:26;103235.40;;;11.82
68939;BMP180;59064;45.294;11.816;2024-01-30T13:10:52;103236.60;;;11.80
68939;BMP180;59064;45.294;11.816;2024-01-30T13:13:18;103232.60;;;11.84
68939;BMP180;59064;45.294;11.816;2024-01-30T13:15:43;103234.40;;;11.90
68939;BMP180;59064;45.294;11.816;2024-01-30T13:18:09;103230.80;;;11.80
68939;BMP180;59064;45.294;11.816;2024-01-30T13:20:35;103231.40;;;11.72
68939;BMP180;59064;45.294;11.816;2024-01-30T13:23:01;103227.40;;;11.70
68939;BMP180;59064;45.294;11.816;2024-01-30T13:25:26;103229.60;;;11.70
68939;BMP180;59064;45.294;11.816;2024-01-30T13:27:52;103228.00;;;11.50
68939;BMP180;59064;45.294;11.816;2024-01-30T13:30:18;103234.00;;;11.66
68939;BMP180;59064;45.294;11.816;2024-01-30T13:32:43;103231.60;;;11.80
68939;BMP180;59064;45.294;11.816;2024-01-30T13:35:09;103229.00;;;11.80
68939;BMP180;59064;45.294;11.816;2024-01-30T13:37:35;103227.20;;;11.80
68939;BMP180;59064;45.294;11.816;2024-01-30T13:40:03;103226.60;;;11.84
68939;BMP180;59064;45.294;11.816;2024-01-30T13:42:32;103220.60;;;11.82
68939;BMP180;59064;45.294;11.816;2024-01-30T13:44:58;103222.60;;;11.72
68939;BMP180;59064;45.294;11.816;2024-01-30T13:47:24;103224.20;;;11.78
68939;BMP180;59064;45.294;11.816;2024-01-30T13:49:50;103227.00;;;11.96